createdAt,value
2017-08-13T00:01:14.284Z,74.20
2017-08-13T00:03:42.565Z,74.50
2017-08-13T00:06:11.600Z,74.60
2017-08-13T00:08:39.920Z,74.70
2017-08-13T00:11:09.584Z,74.60
2017-08-13T00:13:37.839Z,74.60
2017-08-13T00:16:06.125Z,75.40
2017-08-13T00:18:35.164Z,75.30
2017-08-13T00:21:03.479Z,75.30
2017-08-13T00:23:32.628Z,75.70
2017-08-13T00:26:00.903Z,74.60
2017-08-13T00:28:29.962Z,75.00
2017-08-13T00:30:58.278Z,75.00
2017-08-13T00:33:26.587Z,73.70
2017-08-13T00:35:54.897Z,74.60
2017-08-13T00:38:23.907Z,75.10
2017-08-13T00:40:52.223Z,75.00
2017-08-13T00:43:21.260Z,75.10
2017-08-13T00:45:49.620Z,75.00
2017-08-13T00:48:17.892Z,74.30
2017-08-13T00:50:46.164Z,74.60
2017-08-13T00:53:14.460Z,74.30
2017-08-13T00:55:43.497Z,75.50
2017-08-13T00:58:11.888Z,75.50
2017-08-13T01:00:40.929Z,75.50
2017-08-13T01:03:09.191Z,75.50
2017-08-13T01:05:37.482Z,75.50
2017-08-13T01:08:05.745Z,75.20
2017-08-13T01:10:34.808Z,74.10
2017-08-13T01:13:03.063Z,74.10
2017-08-13T01:15:31.340Z,74.80
2017-08-13T01:17:59.684Z,74.70
2017-08-13T01:20:27.958Z,75.00
2017-08-13T01:22:56.441Z,73.80
2017-08-13T01:25:25.520Z,74.10
2017-08-13T01:27:53.784Z,73.90
2017-08-13T01:30:22.826Z,74.50
2017-08-13T01:32:51.095Z,74.30
2017-08-13T01:35:19.404Z,74.20
2017-08-13T01:37:47.667Z,74.20
2017-08-13T01:40:15.931Z,74.40
2017-08-13T01:42:44.219Z,74.40
2017-08-13T01:45:12.480Z,75.40
2017-08-13T01:47:40.792Z,74.90
2017-08-13T01:50:09.829Z,74.10
2017-08-13T01:52:38.087Z,74.00
2017-08-13T01:55:06.382Z,74.50
2017-08-13T01:57:34.644Z,74.50
2017-08-13T02:00:02.947Z,74.60
2017-08-13T02:02:31.213Z,76.00
2017-08-13T02:04:59.475Z,74.60
2017-08-13T02:07:27.766Z,75.70
2017-08-13T02:09:56.027Z,75.40
2017-08-13T02:12:24.351Z,75.10
2017-08-13T02:14:52.633Z,73.90
2017-08-13T02:17:20.910Z,74.00
2017-08-13T02:19:49.195Z,74.40
2017-08-13T02:22:17.460Z,74.20
2017-08-13T02:24:45.924Z,74.60
2017-08-13T02:27:14.189Z,75.60
2017-08-13T02:29:43.215Z,75.40
2017-08-13T02:32:11.499Z,74.80
2017-08-13T02:34:39.764Z,74.90
2017-08-13T02:37:08.076Z,74.20
2017-08-13T02:39:36.345Z,74.20
2017-08-13T02:42:04.619Z,74.90
2017-08-13T02:44:32.904Z,73.20
2017-08-13T02:47:01.176Z,73.40
2017-08-13T02:49:30.492Z,75.20
2017-08-13T02:51:59.524Z,75.40
2017-08-13T02:54:27.796Z,75.30
2017-08-13T02:56:56.080Z,73.60
2017-08-13T02:59:25.115Z,73.10
2017-08-13T03:01:53.403Z,73.00
2017-08-13T03:04:21.684Z,74.80
2017-08-13T03:06:50.723Z,75.70
2017-08-13T03:09:19.024Z,75.70
2017-08-13T03:11:47.288Z,75.80
2017-08-13T03:14:16.347Z,76.90
2017-08-13T03:16:44.615Z,76.10
2017-08-13T03:19:12.875Z,75.40
2017-08-13T03:21:41.166Z,76.50
2017-08-13T03:24:10.204Z,76.40
2017-08-13T03:26:38.516Z,76.30
2017-08-13T03:29:06.779Z,75.70
2017-08-13T03:31:35.065Z,77.10
2017-08-13T03:34:03.339Z,76.50
2017-08-13T03:36:32.511Z,74.10
2017-08-13T03:39:00.812Z,74.10
2017-08-13T03:41:29.846Z,77.10
2017-08-13T03:43:58.108Z,76.20
2017-08-13T03:46:26.392Z,77.00
2017-08-13T03:48:54.667Z,76.30
2017-08-13T03:51:23.728Z,76.40
2017-08-13T03:53:51.999Z,76.10
2017-08-13T03:56:20.276Z,76.40
2017-08-13T03:58:48.560Z,76.30
2017-08-13T04:01:16.827Z,75.60
2017-08-13T04:03:45.147Z,76.30
2017-08-13T04:06:13.412Z,76.10
2017-08-13T04:08:41.671Z,75.40
2017-08-13T04:11:10.866Z,75.70
2017-08-13T04:13:39.129Z,77.00
2017-08-13T04:16:08.307Z,76.00
2017-08-13T04:18:36.580Z,76.00
2017-08-13T04:21:05.847Z,75.20
2017-08-13T04:23:34.136Z,75.20
2017-08-13T04:26:02.412Z,75.40
2017-08-13T04:28:30.704Z,74.80
2017-08-13T04:30:58.970Z,74.80
2017-08-13T04:33:27.256Z,74.80
2017-08-13T04:35:55.552Z,75.00
2017-08-13T04:38:23.814Z,74.90
2017-08-13T04:40:52.112Z,75.10
2017-08-13T04:43:20.389Z,74.30
2017-08-13T04:45:48.654Z,75.10
2017-08-13T04:48:16.941Z,74.20
2017-08-13T04:50:45.972Z,74.20
2017-08-13T04:53:14.283Z,74.00
2017-08-13T04:55:43.311Z,75.40
2017-08-13T04:58:11.587Z,75.40
2017-08-13T05:00:39.881Z,75.80
2017-08-13T05:03:08.903Z,76.10
2017-08-13T05:05:37.226Z,75.30
2017-08-13T05:08:06.266Z,74.60
2017-08-13T05:10:34.525Z,74.50
2017-08-13T05:13:02.805Z,75.00
2017-08-13T05:15:31.067Z,74.20
2017-08-13T05:17:59.372Z,74.50
2017-08-13T05:20:27.640Z,75.30
2017-08-13T05:22:55.909Z,75.40
2017-08-13T05:25:24.192Z,74.90
2017-08-13T05:27:52.459Z,75.00
2017-08-13T05:30:20.786Z,75.70
2017-08-13T05:32:49.056Z,76.80
2017-08-13T05:35:17.319Z,78.30
2017-08-13T05:37:45.647Z,76.80
2017-08-13T05:40:13.907Z,78.30
2017-08-13T05:42:42.217Z,77.40
2017-08-13T05:45:10.483Z,78.30
2017-08-13T05:47:38.747Z,78.20
2017-08-13T05:50:07.043Z,79.10
2017-08-13T05:52:36.067Z,81.70
2017-08-13T05:55:04.367Z,80.90
2017-08-13T05:57:32.636Z,81.20
2017-08-13T06:00:01.669Z,81.60
2017-08-13T06:02:29.959Z,81.50
2017-08-13T06:04:58.215Z,81.70
2017-08-13T06:07:26.514Z,83.70
2017-08-13T06:09:55.560Z,84.60
2017-08-13T06:12:23.828Z,84.60
2017-08-13T06:14:52.116Z,84.70
2017-08-13T06:17:20.380Z,85.00
2017-08-13T06:19:48.695Z,85.50
2017-08-13T06:22:16.959Z,83.90
2017-08-13T06:24:45.232Z,85.20
2017-08-13T06:27:13.517Z,85.10
2017-08-13T06:29:42.552Z,85.60
2017-08-13T06:32:11.263Z,85.60
2017-08-13T06:34:39.523Z,85.50
2017-08-13T06:37:07.776Z,85.80
2017-08-13T06:39:36.839Z,84.30
2017-08-13T06:42:05.128Z,83.70
2017-08-13T06:44:34.308Z,83.70
2017-08-13T06:47:03.344Z,82.20
2017-08-13T06:49:31.619Z,82.10
2017-08-13T06:51:59.899Z,83.50
2017-08-13T06:54:28.928Z,83.20
2017-08-13T06:56:57.227Z,83.00
2017-08-13T06:59:25.500Z,80.80
2017-08-13T07:01:53.780Z,82.30
2017-08-13T07:04:22.824Z,82.70
2017-08-13T07:06:51.087Z,82.60
2017-08-13T07:09:19.584Z,79.30
2017-08-13T07:11:47.843Z,79.50
2017-08-13T07:14:16.877Z,80.00
2017-08-13T07:16:45.151Z,79.30
2017-08-13T07:19:13.420Z,79.50
2017-08-13T07:21:41.703Z,80.30
2017-08-13T07:24:10.749Z,76.50
2017-08-13T07:26:39.444Z,76.50
2017-08-13T07:29:07.715Z,77.30
2017-08-13T07:31:36.739Z,75.60
2017-08-13T07:34:05.051Z,75.40
2017-08-13T07:36:34.077Z,78.50
2017-08-13T07:39:02.350Z,78.40
2017-08-13T07:41:30.633Z,77.90
2017-08-13T07:43:58.904Z,77.60
2017-08-13T07:46:27.200Z,78.00
2017-08-13T07:48:55.468Z,75.80
2017-08-13T07:51:23.744Z,77.30
2017-08-13T07:53:52.019Z,74.80
2017-08-13T07:56:20.286Z,77.40
2017-08-13T07:58:49.105Z,75.90
2017-08-13T08:01:18.140Z,76.90
2017-08-13T08:03:46.421Z,76.80
2017-08-13T08:06:14.963Z,75.80
2017-08-13T08:08:43.236Z,75.80
2017-08-13T08:11:11.552Z,75.10
2017-08-13T08:13:39.824Z,72.90
2017-08-13T08:16:08.083Z,73.00
2017-08-13T08:18:36.410Z,75.40
2017-08-13T08:21:05.443Z,76.50
2017-08-13T08:23:33.743Z,76.50
2017-08-13T08:26:02.784Z,74.00
2017-08-13T08:28:31.053Z,73.90
2017-08-13T08:30:59.335Z,75.50
2017-08-13T08:33:27.615Z,74.20
2017-08-13T08:35:56.784Z,75.80
2017-08-13T08:38:25.826Z,76.30
2017-08-13T08:40:54.106Z,76.50
2017-08-13T08:43:22.387Z,77.80
2017-08-13T08:45:50.668Z,79.70
2017-08-13T08:48:19.777Z,82.00
2017-08-13T08:50:48.036Z,81.90
2017-08-13T08:53:16.620Z,82.70
2017-08-13T08:55:44.904Z,83.20
2017-08-13T08:58:13.171Z,84.30
2017-08-13T09:00:41.500Z,83.80
2017-08-13T09:03:09.776Z,85.00
2017-08-13T09:05:38.036Z,87.20
2017-08-13T09:08:06.419Z,85.10
2017-08-13T09:10:34.676Z,86.00
2017-08-13T09:13:02.971Z,87.40
2017-08-13T09:15:31.261Z,88.60
2017-08-13T09:17:59.515Z,86.30
2017-08-13T09:20:27.804Z,85.40
2017-08-13T09:22:56.070Z,87.50
2017-08-13T09:25:24.388Z,87.90
2017-08-13T09:27:52.660Z,85.70
2017-08-13T09:30:20.927Z,85.00
2017-08-13T09:32:49.214Z,86.60
2017-08-13T09:35:17.484Z,86.50
2017-08-13T09:37:45.811Z,86.30
2017-08-13T09:40:14.076Z,88.30
2017-08-13T09:42:42.344Z,89.40
2017-08-13T09:45:10.625Z,90.30
2017-08-13T09:47:38.896Z,88.60
2017-08-13T09:50:07.200Z,88.60
2017-08-13T09:52:35.471Z,88.60
2017-08-13T09:55:03.751Z,88.80
2017-08-13T09:57:32.036Z,88.70
2017-08-13T10:00:00.306Z,88.90
2017-08-13T10:02:28.599Z,88.80
2017-08-13T10:04:56.920Z,87.90
2017-08-13T10:07:25.215Z,86.80
2017-08-13T10:09:53.513Z,87.00
2017-08-13T10:12:21.787Z,84.70
2017-08-13T10:14:50.093Z,83.70
2017-08-13T10:17:19.232Z,83.90
2017-08-13T10:19:47.527Z,83.90
2017-08-13T10:22:16.598Z,84.30
2017-08-13T10:24:45.777Z,80.70
2017-08-13T10:27:14.851Z,85.60
2017-08-13T10:29:43.116Z,85.20
2017-08-13T10:32:11.415Z,80.50
2017-08-13T10:34:39.750Z,82.70
2017-08-13T10:37:08.034Z,80.80
2017-08-13T10:39:37.120Z,79.60
2017-08-13T10:42:05.395Z,79.60
2017-08-13T10:44:33.671Z,78.80
2017-08-13T10:47:02.089Z,80.20
2017-08-13T10:49:30.356Z,78.40
2017-08-13T10:51:59.408Z,81.00
2017-08-13T10:54:27.672Z,81.00
2017-08-13T10:56:55.968Z,76.70
2017-08-13T10:59:25.076Z,75.50
2017-08-13T11:01:53.343Z,75.40
2017-08-13T11:04:21.650Z,77.10
2017-08-13T11:06:49.930Z,74.90
2017-08-13T11:09:18.967Z,74.60
2017-08-13T11:11:47.247Z,74.40
2017-08-13T11:14:15.519Z,71.60
2017-08-13T11:16:44.588Z,73.40
2017-08-13T11:19:12.877Z,73.20
2017-08-13T11:21:41.912Z,74.50
2017-08-13T11:24:10.192Z,74.50
2017-08-13T11:26:39.228Z,76.30
2017-08-13T11:29:07.599Z,75.40
2017-08-13T11:31:35.941Z,74.80
2017-08-13T11:34:04.212Z,74.70
2017-08-13T11:36:32.496Z,73.80
2017-08-13T11:39:00.764Z,72.70
2017-08-13T11:41:29.556Z,74.10
2017-08-13T11:43:58.592Z,74.90
2017-08-13T11:46:26.872Z,74.80
2017-08-13T11:48:55.163Z,76.00
2017-08-13T11:51:24.196Z,77.60
2017-08-13T11:53:52.548Z,77.60
2017-08-13T11:56:21.708Z,76.90
2017-08-13T11:58:49.976Z,77.50
2017-08-13T12:01:18.264Z,79.00
2017-08-13T12:03:46.540Z,79.70
2017-08-13T12:06:14.848Z,77.10
2017-08-13T12:08:43.124Z,76.40
2017-08-13T12:11:11.400Z,75.80
2017-08-13T12:13:39.676Z,75.60
2017-08-13T12:16:07.948Z,74.80
2017-08-13T12:18:36.440Z,76.10
2017-08-13T12:21:05.467Z,71.80
2017-08-13T12:23:33.731Z,71.80
2017-08-13T12:26:02.019Z,72.40
2017-08-13T12:28:30.287Z,73.00
2017-08-13T12:30:58.591Z,71.40
2017-08-13T12:33:26.862Z,69.60
2017-08-13T12:35:55.134Z,71.20
2017-08-13T12:38:23.540Z,67.40
2017-08-13T12:40:51.816Z,70.30
2017-08-13T12:43:20.887Z,69.80
2017-08-13T12:45:50.027Z,71.60
2017-08-13T12:48:18.304Z,71.60
2017-08-13T12:50:46.587Z,70.60
2017-08-13T12:53:14.851Z,70.40
2017-08-13T12:55:43.905Z,71.80
2017-08-13T12:58:12.179Z,71.70
2017-08-13T13:00:40.455Z,71.20
2017-08-13T13:03:09.496Z,72.80
2017-08-13T13:05:37.807Z,72.80
2017-08-13T13:08:06.836Z,72.70
2017-08-13T13:10:35.112Z,72.70
2017-08-13T13:13:03.408Z,70.20
2017-08-13T13:15:32.444Z,67.40
2017-08-13T13:18:00.732Z,67.40
2017-08-13T13:20:29.776Z,69.30
2017-08-13T13:22:58.056Z,69.80
2017-08-13T13:25:26.340Z,68.50
2017-08-13T13:27:55.396Z,65.70
2017-08-13T13:30:23.664Z,65.70
2017-08-13T13:32:52.848Z,64.30
2017-08-13T13:35:21.116Z,64.30
2017-08-13T13:37:49.411Z,66.50
2017-08-13T13:40:17.683Z,64.60
2017-08-13T13:42:45.972Z,63.30
2017-08-13T13:45:14.239Z,59.80
2017-08-13T13:47:42.536Z,60.50
2017-08-13T13:50:11.579Z,60.40
2017-08-13T13:52:39.858Z,60.30
2017-08-13T13:55:08.127Z,62.20
2017-08-13T14:00:14.728Z,59.60
2017-08-13T14:02:43.031Z,59.20
2017-08-13T14:05:11.311Z,59.90
2017-08-13T14:07:40.364Z,62.20
2017-08-13T14:10:08.654Z,62.10
2017-08-13T14:12:38.144Z,61.50
2017-08-13T14:15:07.232Z,59.60
2017-08-13T14:17:36.278Z,58.60
2017-08-13T14:20:04.569Z,58.40
2017-08-13T14:22:33.603Z,53.50
2017-08-13T14:25:01.897Z,53.50
2017-08-13T14:27:30.168Z,52.90
2017-08-13T14:29:58.511Z,55.20
2017-08-13T14:32:26.803Z,52.00
2017-08-13T14:34:55.095Z,52.80
2017-08-13T14:37:23.380Z,55.50
2017-08-13T14:39:51.684Z,53.70
2017-08-13T14:42:20.731Z,54.50
2017-08-13T14:44:49.011Z,54.20
2017-08-13T14:47:18.047Z,55.60
2017-08-13T14:49:46.349Z,55.10
2017-08-13T14:52:14.659Z,52.70
2017-08-13T14:54:42.958Z,51.10
2017-08-13T14:57:11.240Z,50.30
2017-08-13T14:59:39.519Z,49.20
2017-08-13T15:02:08.546Z,50.90
2017-08-13T15:04:36.840Z,50.90
2017-08-13T15:07:05.883Z,50.20
2017-08-13T15:09:34.196Z,49.70
2017-08-13T15:12:03.228Z,49.40
2017-08-13T15:14:31.532Z,49.60
2017-08-13T15:17:00.568Z,50.60
2017-08-13T15:19:28.888Z,50.50
2017-08-13T15:21:57.171Z,51.10
2017-08-13T15:24:25.453Z,48.70
2017-08-13T15:26:53.772Z,50.70
2017-08-13T15:29:22.087Z,54.30
2017-08-13T15:31:50.403Z,52.30
2017-08-13T15:34:18.659Z,50.00
2017-08-13T15:36:46.952Z,49.10
2017-08-13T15:39:15.232Z,48.60
2017-08-13T15:41:43.524Z,48.40
2017-08-13T15:44:12.559Z,48.20
2017-08-13T15:46:40.855Z,48.20
2017-08-13T15:49:09.897Z,45.70
2017-08-13T15:51:38.191Z,46.20
2017-08-13T15:54:07.243Z,43.50
2017-08-13T15:56:35.520Z,43.40
2017-08-13T15:59:03.791Z,42.70
2017-08-13T16:01:32.863Z,44.10
2017-08-13T16:04:01.116Z,44.10
2017-08-13T16:06:29.671Z,46.30
2017-08-13T16:08:57.947Z,46.90
2017-08-13T16:11:26.252Z,48.30
2017-08-13T16:13:54.526Z,43.80
2017-08-13T16:16:22.817Z,45.10
2017-08-13T16:18:51.093Z,47.70
2017-08-13T16:21:19.435Z,48.20
2017-08-13T16:23:47.712Z,47.60
2017-08-13T16:26:15.988Z,46.60
2017-08-13T16:28:44.300Z,47.20
2017-08-13T16:31:12.589Z,47.10
2017-08-13T16:33:40.878Z,47.50
2017-08-13T16:36:09.150Z,47.50
2017-08-13T16:38:37.439Z,47.60
2017-08-13T16:41:05.712Z,46.40
2017-08-13T16:43:34.003Z,46.50
2017-08-13T16:46:02.279Z,47.20
2017-08-13T16:48:30.574Z,47.50
2017-08-13T16:53:33.495Z,48.30
2017-08-13T16:56:01.768Z,49.10
2017-08-13T16:58:30.055Z,49.50
2017-08-13T17:00:59.087Z,49.90
2017-08-13T17:03:27.423Z,49.80
2017-08-13T17:05:55.712Z,49.60
2017-08-13T17:08:24.013Z,48.90
2017-08-13T17:10:53.051Z,50.70
2017-08-13T17:13:21.370Z,50.10
2017-08-13T17:15:50.413Z,49.70
2017-08-13T17:18:18.703Z,49.80
2017-08-13T17:20:47.753Z,50.00
2017-08-13T17:23:16.043Z,49.90
2017-08-13T17:25:44.319Z,51.00
2017-08-13T17:28:12.599Z,50.50
2017-08-13T17:30:40.888Z,51.20
2017-08-13T17:33:09.156Z,51.30
2017-08-13T17:35:37.471Z,51.70
2017-08-13T17:38:05.743Z,51.10
2017-08-13T17:40:34.019Z,52.90
2017-08-13T17:43:02.325Z,52.80
2017-08-13T17:45:30.601Z,53.00
2017-08-13T17:47:59.632Z,53.70
2017-08-13T17:50:27.936Z,53.70
2017-08-13T17:52:57.017Z,53.80
2017-08-13T17:55:26.073Z,54.10
2017-08-13T17:57:54.349Z,54.10
2017-08-13T18:00:23.415Z,53.30
2017-08-13T18:02:51.715Z,53.20
2017-08-13T18:05:20.045Z,53.70
2017-08-13T18:07:48.309Z,54.60
2017-08-13T18:10:17.435Z,53.30
2017-08-13T18:12:45.704Z,53.70
2017-08-13T18:15:13.976Z,54.90
2017-08-13T18:17:42.299Z,56.30
2017-08-13T18:20:10.666Z,56.20
2017-08-13T18:22:38.983Z,56.70
2017-08-13T18:25:07.260Z,57.20
2017-08-13T18:27:35.535Z,57.80
2017-08-13T18:30:04.640Z,58.60
2017-08-13T18:32:33.092Z,58.50
2017-08-13T18:35:02.168Z,60.30
2017-08-13T18:37:31.200Z,60.90
2017-08-13T18:40:00.263Z,61.30
2017-08-13T18:42:28.548Z,61.30
2017-08-13T18:44:56.824Z,62.50
2017-08-13T18:47:25.300Z,62.40
2017-08-13T18:49:54.327Z,64.30
2017-08-13T18:52:23.420Z,65.30
2017-08-13T18:54:51.713Z,65.10
2017-08-13T18:57:19.990Z,66.40
2017-08-13T18:59:49.099Z,67.60
2017-08-13T19:02:17.372Z,67.60
2017-08-13T19:04:45.644Z,68.20
2017-08-13T19:07:13.923Z,69.60
2017-08-13T19:09:42.195Z,70.40
2017-08-13T19:12:10.524Z,71.00
2017-08-13T19:14:38.796Z,70.90
2017-08-13T19:17:07.063Z,70.80
2017-08-13T19:19:35.363Z,71.60
2017-08-13T19:22:04.396Z,73.30
2017-08-13T19:24:32.708Z,73.30
2017-08-13T19:27:01.740Z,74.40
2017-08-13T19:29:30.013Z,74.30
2017-08-13T19:31:58.292Z,75.00
2017-08-13T19:34:26.556Z,75.30
2017-08-13T19:36:55.652Z,75.80
2017-08-13T19:39:24.691Z,76.60
2017-08-13T19:41:52.956Z,77.20
2017-08-13T19:44:21.243Z,76.80
2017-08-13T19:46:50.324Z,78.70
2017-08-13T19:49:18.624Z,77.90
2017-08-13T19:51:46.888Z,78.30
2017-08-13T19:54:15.216Z,78.50
2017-08-13T19:56:43.511Z,78.80
2017-08-13T19:59:11.784Z,79.00
2017-08-13T20:01:40.180Z,79.00
2017-08-13T20:04:08.441Z,79.00
2017-08-13T20:06:36.716Z,79.80
2017-08-13T20:09:05.763Z,80.60
2017-08-13T20:11:34.027Z,80.30
2017-08-13T20:14:03.241Z,81.40
2017-08-13T20:16:32.272Z,81.90
2017-08-13T20:19:00.571Z,81.90
2017-08-13T20:21:29.648Z,82.00
2017-08-13T20:23:57.931Z,81.90
2017-08-13T20:26:27.019Z,82.10
2017-08-13T20:28:56.040Z,82.40
2017-08-13T20:31:24.316Z,82.30
2017-08-13T20:33:52.608Z,83.00
2017-08-13T20:36:20.876Z,83.50
2017-08-13T20:38:49.963Z,83.60
2017-08-13T20:41:18.236Z,83.50
2017-08-13T20:43:46.512Z,83.40
2017-08-13T20:46:14.796Z,83.10
2017-08-13T20:48:43.062Z,83.20
2017-08-13T20:51:11.374Z,83.00
2017-08-13T20:53:39.936Z,83.30
2017-08-13T20:56:08.199Z,83.60
2017-08-13T20:58:36.484Z,84.30
2017-08-13T21:01:04.751Z,83.40
2017-08-13T21:03:33.036Z,83.10
2017-08-13T21:06:01.308Z,83.40
2017-08-13T21:08:29.584Z,83.70
2017-08-13T21:10:58.616Z,83.70
2017-08-13T21:13:26.901Z,83.70
2017-08-13T21:15:55.168Z,84.10
2017-08-13T21:18:23.451Z,84.70
2017-08-13T21:20:52.476Z,84.60
2017-08-13T21:23:20.776Z,84.60
2017-08-13T21:25:49.052Z,84.40
2017-08-13T21:28:18.111Z,83.30
2017-08-13T21:30:46.372Z,83.30
2017-08-13T21:33:14.664Z,84.20
2017-08-13T21:35:43.711Z,84.70
2017-08-13T21:38:11.976Z,84.60
2017-08-13T21:40:40.564Z,84.80
2017-08-13T21:43:09.595Z,85.40
2017-08-13T21:45:38.119Z,86.00
2017-08-13T21:48:07.139Z,86.50
2017-08-13T21:50:35.427Z,86.40
2017-08-13T21:53:03.691Z,86.50
2017-08-13T21:55:31.991Z,86.30
2017-08-13T21:58:00.255Z,85.60
2017-08-13T22:00:28.530Z,85.70
2017-08-13T22:02:56.807Z,85.60
2017-08-13T22:05:25.096Z,85.60
2017-08-13T22:07:53.392Z,86.50
2017-08-13T22:10:21.671Z,86.50
2017-08-13T22:12:49.964Z,85.80
2017-08-13T22:15:18.234Z,84.80
2017-08-13T22:17:46.508Z,85.20
2017-08-13T22:20:14.804Z,85.20
2017-08-13T22:22:43.826Z,85.60
2017-08-13T22:25:12.147Z,85.50
2017-08-13T22:27:40.403Z,85.10
2017-08-13T22:30:08.675Z,84.70
2017-08-13T22:32:36.964Z,84.80
2017-08-13T22:35:05.224Z,85.30
2017-08-13T22:37:33.540Z,85.70
2017-08-13T22:40:02.567Z,86.80
2017-08-13T22:42:30.836Z,86.70
2017-08-13T22:44:59.123Z,86.80
2017-08-13T22:47:27.384Z,86.70
2017-08-13T22:49:56.475Z,87.50
2017-08-13T22:52:25.513Z,87.00
2017-08-13T22:54:53.791Z,87.00
2017-08-13T22:57:22.076Z,88.40
2017-08-13T22:59:51.119Z,87.60
2017-08-13T23:02:19.427Z,87.60
2017-08-13T23:04:48.451Z,88.20
2017-08-13T23:07:16.711Z,88.20
2017-08-13T23:09:45.025Z,88.20
2017-08-13T23:12:14.062Z,88.20
2017-08-13T23:14:42.351Z,88.20
2017-08-13T23:17:12.288Z,88.60
2017-08-13T23:19:40.575Z,88.60
2017-08-13T23:22:08.872Z,88.20
2017-08-13T23:24:37.134Z,88.60
2017-08-13T23:27:05.427Z,88.50
2017-08-13T23:29:33.688Z,88.20
2017-08-13T23:32:01.955Z,87.20
2017-08-13T23:34:30.241Z,87.10
2017-08-13T23:36:58.508Z,86.20
2017-08-13T23:39:26.795Z,85.90
2017-08-13T23:41:55.063Z,84.90
2017-08-13T23:44:24.248Z,86.70
2017-08-13T23:46:53.283Z,86.70
2017-08-13T23:49:21.560Z,86.50
2017-08-13T23:51:49.840Z,85.60
2017-08-13T23:54:19.044Z,87.80
2017-08-13T23:56:48.120Z,87.00
2017-08-13T23:59:17.156Z,87.60
